Time;durP1;ratioP1;P1;durP2;ratioP2;P2;SDS_P1;SDS_P2;PMS_P1;PMS_P2;Temp;Humidity;BMP_temperature;BMP_pressure;BME280_temperature;BME280_humidity;BME280_pressure;Samples;Min_cycle;Max_cycle;Signal;HPM_P1;HPM_P2
2024/04/01 00:00:35;;;;;;;35.63;18.47;;;11.20;20.90;;;;;;5019217;28;20811;-39
2024/04/01 00:03:00;;;;;;;38.80;18.53;;;11.20;99.90;;;;;;5019596;28;20561;-39
2024/04/01 00:05:26;;;;;;;38.93;18.73;;;11.20;99.90;;;;;;5020064;28;20554;-38
2024/04/01 00:07:52;;;;;;;29.80;18.20;;;11.20;1.00;;;;;;5020344;28;20682;-39
2024/04/01 00:10:21;;;;;;;25.90;18.17;;;11.30;99.90;;;;;;5020409;28;20189;-40
2024/04/01 00:12:47;;;;;;;32.73;20.20;;;11.30;99.90;;;;;;5020418;28;20190;-38
2024/04/01 00:15:13;;;;;;;25.50;16.93;;;11.30;99.90;;;;;;5020423;28;20428;-40
2024/04/01 00:17:39;;;;;;;23.30;17.30;;;11.30;99.90;;;;;;5020503;28;20876;-39
2024/04/01 00:20:06;;;;;;;31.87;17.10;;;11.30;1.00;;;;;;5020091;28;20479;-39
2024/04/01 00:22:32;;;;;;;31.50;17.37;;;11.30;1.00;;;;;;5020232;28;20194;-38
2024/04/01 00:24:57;;;;;;;33.53;16.90;;;11.40;1.00;;;;;;5019744;28;20975;-40
2024/04/01 00:27:23;;;;;;;28.23;17.00;;;11.40;1.00;;;;;;5020571;28;20205;-38
2024/04/01 00:29:49;;;;;;;33.57;17.03;;;11.50;1.00;;;;;;5020325;28;20293;-38
2024/04/01 00:32:15;;;;;;;21.83;15.10;;;11.60;99.90;;;;;;5020820;28;20187;-38
2024/04/01 00:34:40;;;;;;;37.87;15.90;;;11.70;1.00;;;;;;5021178;28;20437;-38
2024/04/01 00:37:06;;;;;;;31.37;15.10;;;11.80;1.00;;;;;;5021862;28;20551;-39
2024/04/01 00:39:32;;;;;;;28.40;14.67;;;11.90;1.00;;;;;;5021772;28;20738;-38
2024/04/01 00:41:57;;;;;;;37.80;15.70;;;12.00;99.90;;;;;;5021467;28;20194;-38
2024/04/01 00:44:23;;;;;;;26.40;16.30;;;12.00;99.90;;;;;;5021495;28;20210;-39
2024/04/01 00:46:50;;;;;;;28.37;15.97;;;12.00;53.90;;;;;;5023683;28;20190;-38
2024/04/01 00:49:16;;;;;;;30.90;16.10;;;12.00;1.00;;;;;;5025784;28;20189;-37
2024/04/01 00:51:43;;;;;;;30.20;15.40;;;12.10;1.00;;;;;;5025587;28;20905;-37
2024/04/01 00:54:09;;;;;;;30.67;15.23;;;12.00;1.00;;;;;;5025458;28;21335;-36
2024/04/01 00:56:35;;;;;;;38.07;15.70;;;12.00;1.00;;;;;;5025582;28;20429;-36
2024/04/01 00:59:03;;;;;;;26.53;14.80;;;12.00;8.20;;;;;;5025997;28;20429;-36
2024/04/01 01:01:31;;;;;;;29.30;14.73;;;12.10;1.00;;;;;;5024578;28;20440;-37
2024/04/01 01:03:58;;;;;;;37.13;15.20;;;12.10;1.00;;;;;;5024019;28;20955;-37
2024/04/01 01:06:25;;;;;;;19.33;14.70;;;12.10;1.00;;;;;;5025430;28;20943;-36
2024/04/01 01:08:50;;;;;;;30.00;15.30;;;12.10;1.00;;;;;;5025041;28;20421;-38
2024/04/01 01:11:17;;;;;;;29.70;16.33;;;12.10;1.00;;;;;;5025086;28;20490;-37
2024/04/01 01:13:42;;;;;;;30.37;15.63;;;12.10;1.00;;;;;;5025358;28;20232;-38
2024/04/01 01:16:08;;;;;;;29.10;15.43;;;12.10;1.00;;;;;;5024988;28;20420;-37
2024/04/01 01:18:34;;;;;;;27.07;14.70;;;12.00;1.00;;;;;;5024472;28;20230;-38
2024/04/01 01:20:59;;;;;;;21.97;15.43;;;12.00;1.00;;;;;;5025302;28;20902;-45
2024/04/01 01:23:25;;;;;;;23.57;14.53;;;12.00;1.00;;;;;;5025187;28;20207;-49
2024/04/01 01:25:51;;;;;;;27.00;16.07;;;12.00;1.00;;;;;;5025100;28;20260;-43
2024/04/01 01:28:16;;;;;;;24.30;13.70;;;11.90;1.00;;;;;;5025042;28;20648;-46
2024/04/01 01:30:42;;;;;;;24.27;14.23;;;11.90;99.90;;;;;;5024898;28;20210;-46
2024/04/01 01:33:08;;;;;;;27.73;15.10;;;11.90;99.90;;;;;;5022987;28;20645;-44
2024/04/01 01:35:35;;;;;;;29.37;15.00;;;12.00;99.90;;;;;;5023125;28;20273;-44
2024/04/01 01:38:02;;;;;;;28.33;14.17;;;12.00;99.90;;;;;;5023508;28;20417;-49
2024/04/01 01:40:28;;;;;;;29.93;14.23;;;12.00;53.10;;;;;;5023171;28;21461;-43
2024/04/01 01:42:54;;;;;;;21.20;14.50;;;12.00;64.00;;;;;;5023272;28;20429;-47
2024/04/01 01:45:19;;;;;;;22.50;14.43;;;12.10;99.90;;;;;;5023452;28;20473;-46
2024/04/01 01:47:45;;;;;;;29.60;14.57;;;12.10;1.00;;;;;;5022980;28;20428;-43
2024/04/01 01:50:11;;;;;;;27.90;14.50;;;12.20;1.00;;;;;;5023396;28;20244;-49
2024/04/01 01:52:36;;;;;;;30.87;13.60;;;12.40;99.90;;;;;;5022935;28;20225;-43
2024/04/01 01:55:03;;;;;;;27.33;14.97;;;12.50;79.90;;;;;;5023035;28;20186;-50
2024/04/01 01:57:29;;;;;;;33.60;13.17;;;12.60;1.00;;;;;;5022348;28;20558;-45
2024/04/01 01:59:55;;;;;;;23.43;14.00;;;12.80;1.00;;;;;;5023159;28;20421;-48
2024/04/01 02:02:21;;;;;;;26.93;12.87;;;12.90;99.90;;;;;;5020976;28;20464;-44
2024/04/01 02:04:46;;;;;;;27.50;13.60;;;13.10;99.90;;;;;;5022636;28;20904;-49
2024/04/01 02:07:12;;;;;;;27.90;14.40;;;13.20;27.00;;;;;;5023193;28;20240;-45
2024/04/01 02:09:38;;;;;;;22.27;12.90;;;13.40;1.00;;;;;;5022153;28;20247;-46
2024/04/01 02:12:10;;;;;;;23.03;13.83;;;13.50;1.00;;;;;;5022293;28;20186;-46
2024/04/01 02:14:39;;;;;;;29.80;13.73;;;13.50;1.00;;;;;;5022804;28;20213;-44
2024/04/01 02:17:07;;;;;;;27.50;14.00;;;13.50;1.00;;;;;;5022451;28;20421;-50
2024/04/01 02:19:36;;;;;;;27.00;14.03;;;13.60;1.00;;;;;;5020707;28;21331;-44
2024/04/01 02:22:02;;;;;;;23.27;13.67;;;13.60;1.00;;;;;;5022621;28;20515;-47
2024/04/01 02:24:28;;;;;;;26.43;13.37;;;13.60;1.00;;;;;;5022573;28;20534;-45
2024/04/01 02:26:54;;;;;;;28.10;14.63;;;13.60;1.00;;;;;;5022109;28;20410;-51
2024/04/01 02:29:19;;;;;;;32.97;13.77;;;13.60;1.00;;;;;;5022627;28;20209;-48
2024/04/01 02:31:45;;;;;;;20.70;13.87;;;13.70;1.00;;;;;;5022412;28;21115;-49
2024/04/01 02:34:11;;;;;;;24.97;13.90;;;13.70;1.00;;;;;;5022259;28;20953;-37
2024/04/01 02:36:36;;;;;;;39.77;14.80;;;13.70;99.90;;;;;;5020922;28;20247;-37
2024/04/01 02:39:05;;;;;;;32.77;14.03;;;13.80;99.90;;;;;;5021405;28;20186;-38
2024/04/01 02:41:31;;;;;;;31.70;14.27;;;13.80;99.90;;;;;;5022159;28;20220;-37
2024/04/01 02:43:57;;;;;;;28.80;14.70;;;13.80;99.90;;;;;;5021980;28;20461;-38
2024/04/01 02:46:23;;;;;;;28.70;14.70;;;13.80;99.90;;;;;;5021748;28;20413;-41
2024/04/01 02:48:48;;;;;;;25.67;13.13;;;13.90;99.90;;;;;;5022071;28;20175;-38
2024/04/01 02:51:14;;;;;;;31.27;13.30;;;13.90;99.90;;;;;;5021815;28;20703;-40
2024/04/01 02:53:47;;;;;;;24.23;13.80;;;13.90;99.90;;;;;;5021735;28;20214;-40
2024/04/01 02:56:13;;;;;;;25.57;13.73;;;13.90;99.90;;;;;;5021637;28;20425;-38
2024/04/01 02:58:40;;;;;;;26.70;14.67;;;13.90;99.90;;;;;;5021647;28;20831;-38
2024/04/01 03:01:07;;;;;;;28.13;14.33;;;13.90;99.90;;;;;;5021996;28;20463;-38
2024/04/01 03:03:33;;;;;;;26.83;14.27;;;13.90;99.90;;;;;;5021451;28;20421;-37
2024/04/01 03:05:58;;;;;;;19.43;13.43;;;13.90;99.90;;;;;;5021409;28;20421;-40
2024/04/01 03:08:24;;;;;;;24.20;15.50;;;14.00;99.90;;;;;;5021775;28;20178;-40
2024/04/01 03:10:57;;;;;;;18.47;12.80;;;14.00;99.90;;;;;;5019928;28;20175;-39
2024/04/01 03:13:23;;;;;;;29.67;14.20;;;14.00;99.90;;;;;;5021706;28;20920;-38
2024/04/01 03:15:49;;;;;;;24.90;13.43;;;14.10;99.90;;;;;;5021605;28;20432;-38
2024/04/01 03:18:14;;;;;;;26.87;13.87;;;14.10;99.90;;;;;;5021390;28;20230;-39
2024/04/01 03:20:40;;;;;;;26.17;13.40;;;14.10;98.50;;;;;;5020907;28;20537;-42
2024/04/01 03:23:06;;;;;;;28.13;13.83;;;14.10;88.30;;;;;;5021314;28;20229;-38
2024/04/01 03:25:32;;;;;;;22.80;13.30;;;14.10;68.70;;;;;;5021386;28;20225;-38
2024/04/01 03:27:58;;;;;;;29.50;14.27;;;14.20;40.20;;;;;;5020534;28;20566;-40
2024/04/01 03:30:24;;;;;;;24.27;13.07;;;14.20;30.60;;;;;;5021596;28;20506;-38
2024/04/01 03:32:49;;;;;;;22.80;13.60;;;14.20;29.50;;;;;;5020697;28;20651;-38
2024/04/01 03:35:15;;;;;;;22.63;13.73;;;14.20;17.90;;;;;;5021033;28;20182;-39
2024/04/01 03:37:41;;;;;;;25.87;14.37;;;14.20;10.50;;;;;;5021436;28;20194;-37
2024/04/01 03:40:09;;;;;;;21.77;13.23;;;14.20;4.20;;;;;;5019356;28;20297;-38
2024/04/01 03:42:35;;;;;;;25.20;13.43;;;14.10;1.00;;;;;;5020759;28;21073;-38
2024/04/01 03:45:01;;;;;;;23.83;13.90;;;14.20;1.00;;;;;;5020748;28;20461;-38
2024/04/01 03:47:26;;;;;;;27.83;14.00;;;14.20;1.00;;;;;;5020528;28;20652;-38
2024/04/01 03:49:52;;;;;;;24.00;13.20;;;14.20;1.00;;;;;;5021207;28;20336;-38
2024/04/01 03:52:17;;;;;;;17.37;12.40;;;14.20;1.00;;;;;;5020111;28;20189;-41
2024/04/01 03:54:43;;;;;;;17.23;12.30;;;14.20;1.00;;;;;;5021031;28;20671;-38
2024/04/01 03:57:08;;;;;;;22.23;12.97;;;14.20;1.00;;;;;;5020769;28;20221;-38
2024/04/01 03:59:34;;;;;;;19.77;13.77;;;14.20;1.00;;;;;;5020643;28;20191;-38
2024/04/01 04:02:00;;;;;;;26.23;12.80;;;14.20;1.00;;;;;;5020850;28;20644;-40
2024/04/01 04:04:25;;;;;;;26.97;13.17;;;14.30;1.00;;;;;;5020383;28;20742;-37
2024/04/01 04:06:51;;;;;;;27.00;13.27;;;14.30;1.00;;;;;;5021129;28;20209;-39
2024/04/01 04:09:17;;;;;;;27.50;12.67;;;14.30;1.00;;;;;;5020061;28;20178;-38
2024/04/01 04:11:49;;;;;;;22.23;12.70;;;14.20;1.00;;;;;;5020095;28;20209;-38
2024/04/01 04:14:19;;;;;;;18.10;12.90;;;14.20;1.00;;;;;;5020182;28;20171;-45
2024/04/01 04:16:48;;;;;;;17.50;12.40;;;14.20;1.00;;;;;;5020532;28;20421;-44
2024/04/01 04:19:14;;;;;;;17.33;12.67;;;14.30;1.00;;;;;;5020441;28;20465;-43
2024/04/01 04:21:40;;;;;;;35.00;13.13;;;14.30;1.00;;;;;;5019310;28;20432;-48
2024/04/01 04:24:06;;;;;;;22.90;11.73;;;14.30;1.00;;;;;;5020714;28;20474;-49
2024/04/01 04:26:32;;;;;;;17.23;11.50;;;14.40;1.00;;;;;;5020689;28;20445;-47
2024/04/01 04:28:57;;;;;;;27.43;11.43;;;14.50;1.00;;;;;;5020242;28;20229;-48
2024/04/01 04:31:24;;;;;;;17.90;11.90;;;14.50;1.00;;;;;;5020116;28;20712;-44
2024/04/01 04:33:49;;;;;;;13.53;11.73;;;14.50;1.00;;;;;;5020271;28;20284;-44
2024/04/01 04:36:15;;;;;;;14.97;13.27;;;14.50;1.00;;;;;;5020418;28;20414;-49
2024/04/01 04:38:41;;;;;;;18.60;12.50;;;14.50;1.00;;;;;;5020320;28;20186;-48
2024/04/01 04:41:06;;;;;;;22.07;13.37;;;14.50;1.00;;;;;;5020169;28;20683;-47
2024/04/01 04:43:32;;;;;;;16.83;12.67;;;14.50;1.00;;;;;;5018573;28;20595;-48
2024/04/01 04:45:59;;;;;;;14.03;12.50;;;14.50;1.00;;;;;;5018662;28;20202;-46
2024/04/01 04:48:28;;;;;;;21.20;12.40;;;14.50;1.00;;;;;;5018266;28;20189;-46
2024/04/01 04:50:54;;;;;;;13.07;11.73;;;14.50;1.00;;;;;;5019508;28;20417;-44
2024/04/01 04:53:20;;;;;;;14.30;12.70;;;14.50;1.00;;;;;;5019543;28;21178;-49
2024/04/01 04:55:46;;;;;;;21.40;12.40;;;14.40;1.00;;;;;;5020606;28;20429;-49
2024/04/01 04:58:11;;;;;;;16.70;13.50;;;14.40;1.00;;;;;;5019808;28;20542;-40
2024/04/01 05:00:37;;;;;;;16.67;12.63;;;14.40;1.00;;;;;;5018224;28;20217;-38
2024/04/01 05:03:05;;;;;;;13.37;11.67;;;14.30;1.00;;;;;;5019830;28;20194;-38
2024/04/01 05:05:31;;;;;;;13.80;12.00;;;14.30;1.00;;;;;;5016819;28;20687;-45
2024/04/01 05:07:57;;;;;;;14.87;12.40;;;14.20;1.00;;;;;;5017640;28;20932;-37
2024/04/01 05:10:23;;;;;;;20.60;12.20;;;14.30;1.00;;;;;;5020223;28;20418;-40
2024/04/01 05:12:48;;;;;;;13.17;11.60;;;14.20;1.00;;;;;;5019806;28;20186;-37
2024/04/01 05:15:14;;;;;;;21.63;12.03;;;14.20;1.00;;;;;;5020290;28;20265;-38
2024/04/01 05:17:39;;;;;;;15.50;12.03;;;14.20;1.00;;;;;;5020090;28;20266;-39
2024/04/01 05:20:05;;;;;;;20.30;12.97;;;14.20;1.00;;;;;;5017804;28;20194;-38
2024/04/01 05:22:31;;;;;;;14.33;11.60;;;14.20;1.00;;;;;;5019979;28;20182;-38
2024/04/01 05:24:57;;;;;;;15.60;11.70;;;14.20;1.00;;;;;;5019343;28;20222;-37
2024/04/01 05:27:23;;;;;;;18.40;12.33;;;14.20;1.00;;;;;;5019713;28;20910;-37
2024/04/01 05:30:03;;;;;;;20.50;12.23;;;14.20;1.00;;;;;;5019730;28;20469;-39
2024/04/01 05:32:32;;;;;;;14.03;11.87;;;14.20;1.00;;;;;;5018845;28;20198;-38
2024/04/01 05:34:58;;;;;;;16.13;12.20;;;14.20;1.00;;;;;;5023189;28;20429;-38
2024/04/01 05:37:24;;;;;;;16.17;12.37;;;14.20;1.00;;;;;;5022981;28;20441;-38
2024/04/01 05:39:51;;;;;;;13.37;11.50;;;14.20;1.00;;;;;;5023083;28;20768;-37
2024/04/01 05:42:17;;;;;;;12.77;11.60;;;14.20;1.00;;;;;;5023088;28;20425;-38
2024/04/01 05:44:43;;;;;;;15.20;11.77;;;14.20;1.00;;;;;;5023330;28;21643;-38
2024/04/01 05:47:09;;;;;;;12.37;11.10;;;14.20;1.00;;;;;;5023158;28;20504;-37
2024/04/01 05:49:35;;;;;;;16.57;11.03;;;14.20;1.00;;;;;;5023266;28;20183;-37
2024/04/01 05:52:00;;;;;;;12.07;10.90;;;14.20;1.00;;;;;;5023622;28;20194;-40
2024/04/01 05:54:26;;;;;;;12.10;11.10;;;14.30;1.00;;;;;;5023057;28;20190;-38
2024/04/01 05:56:51;;;;;;;15.93;11.97;;;14.30;1.00;;;;;;5023028;28;20622;-37
2024/04/01 05:59:17;;;;;;;13.07;11.73;;;14.30;1.00;;;;;;5023041;28;20206;-40
2024/04/01 06:01:42;;;;;;;12.03;11.00;;;14.40;1.00;;;;;;5022880;28;20194;-38
2024/04/01 06:04:08;;;;;;;20.77;11.70;;;14.40;1.00;;;;;;5022106;28;20672;-41
2024/04/01 06:06:34;;;;;;;15.13;11.57;;;14.40;1.00;;;;;;5020976;28;20282;-41
2024/04/01 06:08:59;;;;;;;20.60;11.87;;;14.40;1.00;;;;;;5022141;28;20182;-40
2024/04/01 06:11:25;;;;;;;12.13;11.03;;;14.40;1.00;;;;;;5022777;28;20255;-38
2024/04/01 06:13:50;;;;;;;17.73;11.03;;;14.40;1.00;;;;;;5022954;28;20176;-41
2024/04/01 06:16:16;;;;;;;15.90;12.23;;;14.50;1.00;;;;;;5022208;28;20190;-37
2024/04/01 06:18:41;;;;;;;15.73;11.53;;;14.50;1.00;;;;;;5022616;28;20230;-37
2024/04/01 06:21:07;;;;;;;14.23;11.50;;;14.60;1.00;;;;;;5022704;28;20261;-40
2024/04/01 06:23:33;;;;;;;14.03;11.10;;;14.60;1.00;;;;;;5022689;28;20197;-38
2024/04/01 06:25:58;;;;;;;12.90;11.60;;;14.50;1.00;;;;;;5022436;28;20218;-38
2024/04/01 06:28:24;;;;;;;14.87;11.43;;;14.60;1.00;;;;;;5022597;28;20178;-37
2024/04/01 06:30:50;;;;;;;12.20;11.23;;;14.60;1.00;;;;;;5022927;28;20641;-37
2024/04/01 06:33:15;;;;;;;12.93;11.07;;;14.60;1.00;;;;;;5023915;28;20178;-39
2024/04/01 06:35:41;;;;;;;14.97;12.20;;;14.60;1.00;;;;;;5023804;28;20295;-37
2024/04/01 06:38:07;;;;;;;14.10;11.80;;;14.60;1.00;;;;;;5022822;28;20802;-38
2024/04/01 06:40:36;;;;;;;14.03;12.10;;;14.60;1.00;;;;;;5024439;28;20187;-39
2024/04/01 06:43:03;;;;;;;12.40;11.23;;;14.60;1.00;;;;;;5021582;28;20459;-39
2024/04/01 06:45:28;;;;;;;12.60;11.40;;;14.60;1.00;;;;;;5022572;28;20534;-37
2024/04/01 06:47:54;;;;;;;11.80;10.70;;;14.70;1.00;;;;;;5023080;28;20468;-38
2024/04/01 06:50:21;;;;;;;11.97;10.80;;;14.70;1.00;;;;;;5021254;28;20289;-37
2024/04/01 06:52:46;;;;;;;12.97;11.60;;;14.70;1.00;;;;;;5022697;28;20455;-39
2024/04/01 06:55:12;;;;;;;13.57;11.20;;;14.70;1.00;;;;;;5022262;28;21533;-38
2024/04/01 06:57:40;;;;;;;18.50;11.60;;;14.80;1.00;;;;;;5020474;28;21197;-49
2024/04/01 07:00:06;;;;;;;11.73;10.97;;;14.80;1.00;;;;;;5021993;28;20723;-50
2024/04/01 07:02:32;;;;;;;12.50;11.40;;;14.90;1.00;;;;;;5021965;28;20640;-51
2024/04/01 07:04:58;;;;;;;12.73;10.80;;;14.90;1.00;;;;;;5022131;28;20968;-39
2024/04/01 07:07:23;;;;;;;11.73;10.73;;;14.90;1.00;;;;;;5022823;28;20191;-40
2024/04/01 07:09:49;;;;;;;11.87;10.50;;;14.90;1.00;;;;;;5023281;28;20187;-38
2024/04/01 07:12:15;;;;;;;11.63;10.63;;;15.00;1.00;;;;;;5022861;28;20216;-38
2024/04/01 07:14:41;;;;;;;11.33;10.43;;;15.10;1.00;;;;;;5023205;28;20417;-41
2024/04/01 07:17:07;;;;;;;12.27;11.13;;;15.20;1.00;;;;;;5020124;28;20421;-42
2024/04/01 07:19:33;;;;;;;12.70;10.93;;;15.20;1.00;;;;;;5020070;28;20244;-40
2024/04/01 07:21:59;;;;;;;12.67;10.60;;;15.20;1.00;;;;;;5020155;28;20424;-37
2024/04/01 07:24:24;;;;;;;11.30;10.40;;;15.30;1.00;;;;;;5018468;28;20597;-41
2024/04/01 07:26:50;;;;;;;12.30;11.20;;;15.30;1.00;;;;;;5019631;28;20187;-39
2024/04/01 07:29:15;;;;;;;11.70;10.50;;;15.40;1.00;;;;;;5019180;28;20194;-38
2024/04/01 07:31:42;;;;;;;13.10;11.07;;;15.40;1.00;;;;;;5020721;28;21245;-37
2024/04/01 07:34:08;;;;;;;13.87;10.93;;;15.50;1.00;;;;;;5019067;28;20281;-38
2024/04/01 07:36:33;;;;;;;16.83;11.07;;;15.60;1.00;;;;;;5018594;28;20479;-42
2024/04/01 07:38:59;;;;;;;11.80;10.80;;;15.70;1.00;;;;;;5008407;28;20767;-38
2024/04/01 07:41:25;;;;;;;11.53;10.67;;;15.80;1.00;;;;;;5018196;28;20247;-40
2024/04/01 07:43:51;;;;;;;12.43;11.20;;;15.80;1.00;;;;;;5018636;28;20437;-38
2024/04/01 07:46:17;;;;;;;12.17;11.23;;;15.90;1.00;;;;;;5018992;28;20221;-39
2024/04/01 07:48:42;;;;;;;11.77;10.83;;;16.00;1.00;;;;;;5017488;28;20229;-39
2024/04/01 07:51:08;;;;;;;11.50;10.40;;;16.10;1.00;;;;;;5018667;28;20264;-40
2024/04/01 07:53:33;;;;;;;12.27;11.33;;;16.20;1.00;;;;;;5019403;28;20674;-40
2024/04/01 07:56:29;;;;;;;11.47;10.50;;;16.20;1.00;;;;;;5019424;28;20186;-38
2024/04/01 08:01:42;;;;;;;11.80;10.90;;;16.20;1.00;;;;;;5016811;28;20515;-45
2024/04/01 08:04:08;;;;;;;12.33;11.00;;;16.30;1.00;;;;;;5019056;28;20457;-38
2024/04/01 08:06:33;;;;;;;11.57;10.50;;;16.30;1.00;;;;;;5019451;28;20228;-38
2024/04/01 08:08:59;;;;;;;12.43;10.97;;;16.20;1.00;;;;;;5019381;28;20178;-38
2024/04/01 08:11:25;;;;;;;11.93;10.70;;;16.20;1.00;;;;;;5017732;28;20178;-38
2024/04/01 08:13:50;;;;;;;11.60;10.50;;;16.20;99.90;;;;;;5019148;28;20245;-38
2024/04/01 08:16:16;;;;;;;12.60;10.60;;;16.30;99.90;;;;;;5018954;28;20178;-39
2024/04/01 08:18:41;;;;;;;11.80;10.80;;;16.20;99.90;;;;;;5019178;28;20237;-38
2024/04/01 08:21:07;;;;;;;12.77;11.60;;;16.20;99.90;;;;;;5019289;28;20210;-38
2024/04/01 08:23:33;;;;;;;12.37;11.43;;;16.20;99.90;;;;;;5018256;28;20194;-39
2024/04/01 08:25:58;;;;;;;13.40;12.20;;;16.20;99.90;;;;;;5020332;28;20285;-40
2024/04/01 08:28:24;;;;;;;12.27;11.00;;;16.20;99.90;;;;;;5020097;28;20237;-38
2024/04/01 08:30:50;;;;;;;11.37;10.47;;;16.20;99.90;;;;;;5020308;28;20678;-38
2024/04/01 08:33:17;;;;;;;12.70;10.63;;;16.30;99.90;;;;;;5020686;28;20222;-40
2024/04/01 08:35:43;;;;;;;14.10;11.10;;;16.40;99.90;;;;;;5020387;28;20178;-37
2024/04/01 08:38:09;;;;;;;13.30;11.30;;;16.40;99.90;;;;;;5020067;28;20464;-40
2024/04/01 08:40:45;;;;;;;11.77;10.80;;;16.50;99.90;;;;;;5020117;28;20512;-41
2024/04/01 08:43:14;;;;;;;11.90;10.80;;;16.40;99.90;;;;;;5020517;28;20182;-39
2024/04/01 08:45:42;;;;;;;12.20;10.90;;;16.50;99.90;;;;;;5020266;28;20465;-40
2024/04/01 08:48:11;;;;;;;13.20;10.70;;;16.60;99.90;;;;;;5020845;28;20432;-38
2024/04/01 08:50:46;;;;;;;11.60;10.40;;;16.70;99.90;;;;;;5020194;28;20682;-38
2024/04/01 08:53:24;;;;;;;13.50;11.03;;;16.70;99.90;;;;;;5019414;28;21382;-42
2024/04/01 08:55:50;;;;;;;11.90;10.90;;;16.70;99.90;;;;;;5020042;28;20436;-39
2024/04/01 08:58:16;;;;;;;13.80;11.10;;;16.80;99.90;;;;;;5020434;28;20425;-42
2024/04/01 09:00:41;;;;;;;11.73;10.73;;;16.80;99.90;;;;;;5020254;28;20183;-38
2024/04/01 09:03:07;;;;;;;10.80;9.93;;;17.00;99.90;;;;;;5020324;28;21037;-38
2024/04/01 09:05:33;;;;;;;11.53;10.37;;;17.40;99.90;;;;;;5019785;28;20202;-37
2024/04/01 09:07:59;;;;;;;11.90;11.00;;;17.80;99.90;;;;;;5021174;28;20910;-39
2024/04/01 09:10:26;;;;;;;10.83;9.83;;;18.00;99.90;;;;;;5023920;28;20205;-39
2024/04/01 09:12:58;;;;;;;11.60;10.50;;;18.30;99.90;;;;;;5022890;28;20440;-43
2024/04/01 09:15:24;;;;;;;14.93;11.40;;;18.50;99.90;;;;;;5023323;28;20425;-40
2024/04/01 09:17:50;;;;;;;11.80;10.80;;;18.30;99.90;;;;;;5022188;28;20799;-38
2024/04/01 09:20:15;;;;;;;12.03;10.83;;;18.20;99.90;;;;;;5021370;28;20483;-49
2024/04/01 09:22:41;;;;;;;12.70;11.43;;;18.40;99.90;;;;;;5021816;28;20264;-50
2024/04/01 09:25:07;;;;;;;12.97;11.73;;;18.30;99.90;;;;;;5023151;28;20206;-47
2024/04/01 09:27:32;;;;;;;11.47;10.30;;;18.50;99.90;;;;;;5006676;28;20282;-44
2024/04/01 09:29:58;;;;;;;14.70;11.20;;;18.60;99.90;;;;;;5020613;28;20276;-45
2024/04/01 09:32:24;;;;;;;12.00;10.80;;;18.60;99.90;;;;;;5021840;28;20188;-49
2024/04/01 09:34:57;;;;;;;10.53;9.83;;;18.70;99.90;;;;;;5022599;28;20687;-45
2024/04/01 09:37:22;;;;;;;12.13;10.87;;;18.70;99.90;;;;;;5021901;28;20464;-51
2024/04/01 09:39:50;;;;;;;11.50;10.33;;;18.80;99.90;;;;;;5021061;28;20535;-49
2024/04/01 09:42:16;;;;;;;12.60;11.53;;;18.80;99.90;;;;;;5020739;28;20543;-52
2024/04/01 09:44:42;;;;;;;15.30;11.80;;;19.20;99.90;;;;;;5021549;28;20464;-43
2024/04/01 09:47:08;;;;;;;12.43;11.43;;;19.30;99.90;;;;;;5019082;28;21293;-46
2024/04/01 09:49:35;;;;;;;11.30;10.33;;;19.50;99.90;;;;;;5020787;28;20648;-47
2024/04/01 09:52:02;;;;;;;12.20;11.30;;;19.60;99.90;;;;;;5021119;28;20603;-48
2024/04/01 09:54:28;;;;;;;11.40;10.40;;;19.80;99.90;;;;;;5021211;28;20503;-49
2024/04/01 09:57:19;;;;;;;11.27;10.30;;;19.90;99.90;;;;;;5021919;28;20989;-47
2024/04/01 10:00:09;;;;;;;11.30;10.50;;;20.10;99.90;;;;;;5022448;28;20437;-47
2024/04/01 10:02:56;;;;;;;11.20;10.37;;;20.10;99.90;;;;;;5020254;28;20443;-46
2024/04/01 10:05:33;;;;;;;11.63;10.70;;;20.00;99.90;;;;;;5022412;28;20465;-46
2024/04/01 10:08:44;;;;;;;11.10;10.07;;;19.90;99.90;;;;;;5020421;28;20543;-46
2024/04/01 10:11:24;;;;;;;11.30;10.17;;;19.70;99.90;;;;;;5005642;28;20528;-46
2024/04/01 10:14:00;;;;;;;11.73;10.90;;;19.30;99.90;;;;;;5020357;28;20452;-49
2024/04/01 10:17:03;;;;;;;10.10;9.50;;;19.20;99.90;;;;;;5021958;28;20467;-45
2024/04/01 10:19:47;;;;;;;11.40;10.50;;;19.10;99.90;;;;;;5020715;28;20491;-48
2024/04/01 10:22:25;;;;;;;14.13;12.70;;;19.00;99.90;;;;;;5021240;28;20409;-46
2024/04/01 10:25:18;;;;;;;13.93;10.80;;;19.00;99.90;;;;;;5020955;28;20876;-46
2024/04/01 10:28:20;;;;;;;11.67;10.77;;;19.00;99.90;;;;;;5020944;28;20422;-46
2024/04/01 10:31:04;;;;;;;10.23;9.50;;;19.00;99.90;;;;;;5020767;28;20504;-48
2024/04/01 10:33:49;;;;;;;12.43;9.60;;;19.20;99.90;;;;;;5020177;28;20425;-47
2024/04/01 10:36:39;;;;;;;11.73;10.17;;;19.10;99.90;;;;;;5021412;28;20460;-51
2024/04/01 10:39:10;;;;;;;11.43;9.50;;;19.10;99.90;;;;;;5021704;28;20417;-42
2024/04/01 10:41:36;;;;;;;10.50;9.60;;;19.00;99.90;;;;;;5021384;28;20433;-41
2024/04/01 10:44:36;;;;;;;10.83;9.70;;;19.00;99.90;;;;;;5020395;28;20787;-39
2024/04/01 10:47:32;;;;;;;10.73;9.60;;;18.90;99.90;;;;;;5020461;28;20249;-38
2024/04/01 10:50:12;;;;;;;11.27;10.37;;;18.80;99.90;;;;;;5005250;28;20429;-38
2024/04/01 10:52:56;;;;;;;11.40;10.10;;;18.80;99.90;;;;;;5020734;28;20419;-40
2024/04/01 10:55:24;;;;;;;12.93;11.13;;;18.80;99.90;;;;;;5020233;28;20500;-39
2024/04/01 10:57:50;;;;;;;11.97;10.80;;;18.80;99.90;;;;;;5020661;28;20445;-40
2024/04/01 11:00:31;;;;;;;11.40;10.30;;;18.70;99.90;;;;;;5020869;28;20479;-40
2024/04/01 11:03:10;;;;;;;12.03;10.93;;;18.70;99.90;;;;;;5019509;28;20217;-39
2024/04/01 11:05:35;;;;;;;12.07;11.00;;;18.80;99.90;;;;;;5015744;28;20460;-42
2024/04/01 11:08:11;;;;;;;12.03;10.80;;;18.70;99.90;;;;;;5020240;28;20424;-38
2024/04/01 11:11:01;;;;;;;11.23;10.20;;;18.70;99.90;;;;;;5019381;28;20773;-38
2024/04/01 11:13:28;;;;;;;12.50;11.20;;;18.60;99.90;;;;;;5020293;28;20497;-40
2024/04/01 11:15:57;;;;;;;11.27;10.50;;;18.70;99.90;;;;;;5020549;28;20448;-40
2024/04/01 11:18:45;;;;;;;11.10;10.20;;;18.70;99.90;;;;;;5018777;28;20481;-38
2024/04/01 11:21:37;;;;;;;13.17;11.03;;;18.60;99.90;;;;;;5021532;28;20504;-38
2024/04/01 11:24:17;;;;;;;13.63;12.20;;;18.60;99.90;;;;;;5020576;28;20422;-39
2024/04/01 11:27:04;;;;;;;11.53;10.50;;;18.60;99.90;;;;;;5020334;28;21950;-39
2024/04/01 11:30:03;;;;;;;12.07;11.13;;;18.70;99.90;;;;;;5019989;28;21324;-44
2024/04/01 11:32:33;;;;;;;13.10;11.73;;;18.80;99.90;;;;;;5020581;28;20438;-41
2024/04/01 11:35:08;;;;;;;12.73;11.40;;;18.70;99.90;;;;;;5020800;28;20417;-39
2024/04/01 11:37:43;;;;;;;12.13;11.10;;;18.80;99.90;;;;;;5021246;28;20432;-38
2024/04/01 11:40:12;;;;;;;12.90;10.50;;;19.00;99.90;;;;;;5020239;28;20520;-42
2024/04/01 11:42:42;;;;;;;13.77;12.40;;;19.00;99.90;;;;;;5020331;28;20460;-40
2024/04/01 11:45:10;;;;;;;12.53;11.07;;;19.10;99.90;;;;;;5019390;28;21046;-39
2024/04/01 11:47:40;;;;;;;12.13;10.90;;;19.00;99.90;;;;;;5019944;28;20429;-45
2024/04/01 11:50:19;;;;;;;14.37;11.23;;;19.20;99.90;;;;;;5019847;28;20500;-41
2024/04/01 11:53:05;;;;;;;10.90;10.00;;;19.30;99.90;;;;;;5007726;28;20433;-41
2024/04/01 11:55:32;;;;;;;10.80;9.90;;;19.20;99.90;;;;;;5017732;28;20440;-46
2024/04/01 11:58:11;;;;;;;11.80;10.70;;;19.40;99.90;;;;;;5019547;28;20437;-38
2024/04/01 12:00:49;;;;;;;12.87;11.23;;;19.50;99.90;;;;;;5020232;28;20425;-40
2024/04/01 12:03:15;;;;;;;12.07;10.90;;;19.50;99.90;;;;;;5018579;28;20503;-39
2024/04/01 12:05:51;;;;;;;12.37;11.43;;;19.60;99.90;;;;;;5016983;28;20980;-39
2024/04/01 12:08:23;;;;;;;12.20;11.17;;;19.70;99.90;;;;;;5019506;28;20178;-39
2024/04/01 12:10:50;;;;;;;12.23;11.03;;;19.70;99.90;;;;;;5019591;28;20418;-39
2024/04/01 12:13:17;;;;;;;11.33;9.97;;;19.80;99.90;;;;;;5019245;28;20965;-40
2024/04/01 12:15:43;;;;;;;11.90;10.90;;;19.80;99.90;;;;;;5018388;28;20526;-41
2024/04/01 12:18:11;;;;;;;11.67;10.40;;;19.80;99.90;;;;;;5020214;28;20540;-39
2024/04/01 12:20:39;;;;;;;11.10;10.30;;;19.70;99.90;;;;;;5019733;28;21406;-38
2024/04/01 12:23:12;;;;;;;11.20;10.10;;;19.80;99.90;;;;;;5020658;28;20493;-38
2024/04/01 12:25:38;;;;;;;10.47;9.67;;;19.90;99.90;;;;;;5018397;28;20465;-43
2024/04/01 12:28:05;;;;;;;9.93;9.20;;;20.00;99.90;;;;;;5010037;28;20440;-39
2024/04/01 12:30:38;;;;;;;13.00;11.80;;;20.10;99.90;;;;;;5018765;28;20575;-43
2024/04/01 12:33:05;;;;;;;10.47;9.80;;;19.90;99.90;;;;;;5019189;28;20843;-43
2024/04/01 12:35:32;;;;;;;10.90;10.10;;;20.00;99.90;;;;;;5020220;28;20429;-39
2024/04/01 12:38:06;;;;;;;11.13;10.13;;;20.00;99.90;;;;;;5018760;28;20440;-40
2024/04/01 12:40:45;;;;;;;10.60;9.90;;;20.00;99.90;;;;;;5020337;28;20425;-42
2024/04/01 12:43:15;;;;;;;10.10;9.40;;;20.10;99.90;;;;;;5021636;28;20795;-41